Flugplatz Vettweiss-Soller (UL)

Hier findest Du alle Informationen zum Flugplatz Vettweiss-Soller (UL).

Informationen für Piloten zum Flugplatz Vettweiss-Soller

Hier findest Du alle relevanten Informationen, die Du als Pilot benötigst, um Vettweiss-Soller anzufliegen.

Flugplatz: Vettweiss-Soller ICAO-Code: UL Flugplatz
Frequenz Turm: 120,975 Mhz GAFOR Gebiet: 34
Frequenz Ground: 120,975 Mhz Mogas: nein
Platzrunde: O 1000 ft Landegebühr: -
Platzhöhe: - Sunrise: 05:23 Uhr UTC
Pisten: 14/32 - 360 m x 20 m, GRAS Sunset: 17:26 Uhr UTC

Flugwetter am Flugplatz Vettweiss-Soller

Die METAR Information stammen aus EDDK (42.55 km entfernt).

METAR Code:
2018/09/04 05:50
EDDK 040550Z VRB01KT 4000 MIFG BR NSC 15/15 Q1016 BECMG 6000

Flugschulen am Flugplatz Vettweiss-Soller

Am Flugplatz Vettweiss-Soller gibt es leider keine Flugschule.

Benachbarte Flugplätze und Flugschulen

Es gibt 15 weitere Flugplätze in einem Umkreis von 50 km um den Flugplatz Vettweiss-Soller.

Jetzt anmelden

Passwort vergessen

Umfrage Archiv

Welche Art von Theorieunterricht würde Dir am ehesten zusagen?

Frontalunterricht
63.1 %
Selbststudium
36.9 %
Stimmen: 217 | Diskussion
Anzeige: Roland Aircraft
Statistik Alle Mitglieder

Aktuell sind 31 Besucher online, davon 2 Mitglieder und 29 Gäste.


Mitglieder online:
ta  QDM 

Anzeige: VFR Sprechfunk Simulator


Anzeige: Pocket FMS